CDT,Max TemperatureF,Mean TemperatureF,Min TemperatureF,Max Dew PointF,MeanDew PointF,Min DewpointF,Max Humidity, Mean Humidity, Min Humidity, Max Sea Level PressureIn, Mean Sea Level PressureIn, Min Sea Level PressureIn, Max VisibilityMiles, Mean VisibilityMiles, Min VisibilityMiles, Max Wind SpeedMPH, Mean Wind SpeedMPH, Max Gust SpeedMPH,PrecipitationIn, CloudCover, Events, WindDirDegrees
2012-10-1,68,56,44,43,34,25,59,42,24,29.99,29.94,29.88,10,10,10,28,13,33,0.00,0,,331
2012-10-2,71,53,35,34,26,21,60,36,17,29.97,29.90,29.81,10,10,4,14,7,18,0.00,0,,223
2012-10-3,75,60,44,34,29,25,49,31,18,29.86,29.81,29.73,10,10,7,21,11,29,0.00,,,180
2012-10-4,51,45,39,36,28,21,70,54,40,30.25,30.09,29.82,10,10,6,45,17,50,0.00,,,282
2012-10-5,48,37,26,23,18,12,74,48,27,30.25,30.22,30.19,10,10,8,25,5,33,0.00,0,,304
2012-10-6,42,33,23,21,19,12,64,53,36,,,,10,10,10,18,11,25,0.00,5,,326
2012-10-7,53,36,19,21,17,10,74,45,24,,,,10,10,10,20,9,26,0.00,0,,224
2012-10-8,68,54,39,39,29,19,62,42,23,,,,10,10,8,25,12,32,0.00,2,,210
2012-10-9,51,42,30,41,29,18,76,55,37,30.06,29.96,29.85,10,10,10,29,10,38,0.00,6,,288
2012-10-10,57,42,26,27,22,18,74,47,23,30.14,30.04,29.88,10,10,10,22,11,31,0.00,1,,236
2012-10-11,51,40,26,30,24,14,65,48,36,30.39,30.13,29.87,10,10,10,24,16,32,0.00,1,,341
2012-10-12,53,36,19,36,16,10,74,44,21,30.40,30.25,29.96,10,10,10,23,8,34,0.00,2,,148
2012-10-13,66,56,46,52,46,37,88,75,56,29.96,29.76,29.67,10,7,1,18,13,28,0.00,6,,189
2012-10-14,60,50,39,45,33,27,87,59,31,29.95,29.85,29.72,10,9,1,25,14,32,0.00,2,,335
2012-10-15,66,49,32,37,33,25,81,51,32,29.97,29.88,29.71,10,10,5,17,8,24,0.00,0,,192
2012-10-16,75,62,48,45,40,37,71,48,29,29.70,29.51,29.37,10,10,10,20,11,24,0.00,0,,234
2012-10-17,62,52,42,46,38,30,76,59,42,29.43,29.34,29.20,10,10,6,33,19,45,0.00,6,,261
2012-10-18,46,42,37,41,36,32,81,79,70,29.46,29.34,29.24,10,9,2,32,25,43,0.12,8,,302
2012-10-19,42,40,39,36,36,36,87,81,76,29.78,29.66,29.46,10,8,3,30,22,37,0.01,8,,327
2012-10-20,55,46,37,43,38,34,87,78,54,29.82,29.76,29.72,10,9,0,16,6,18,0.00,4,,187
2012-10-21,64,54,44,46,41,37,87,68,45,29.92,29.78,29.71,10,10,8,23,13,28,0.00,0,,183
2012-10-22,57,50,44,52,44,39,88,76,67,29.92,29.88,29.80,10,9,3,16,11,21,0.00,6,,23
2012-10-23,57,55,53,54,51,48,88,85,77,29.82,29.74,29.70,10,4,0,14,7,17,0.00,8,,229
2012-10-24,55,47,39,50,41,34,87,78,66,29.88,29.83,29.80,10,7,0,25,12,32,0.00,8,,1
2012-10-25,39,36,32,34,26,23,81,68,60,30.26,30.00,29.76,10,8,1,31,23,39,0.13,8,,324
2012-10-26,35,34,33,23,20,18,65,57,52,30.42,30.36,30.26,10,10,10,20,14,28,0.00,8,,297
2012-10-27,37,30,23,21,19,16,74,60,45,30.36,30.31,30.25,10,10,10,13,6,,0.00,1,,198
2012-10-28,48,39,30,28,25,21,69,58,43,30.28,30.24,30.19,10,10,10,17,10,22,0.00,4,,163
2012-10-29,53,44,35,27,25,21,70,51,35,30.23,30.18,30.14,10,10,10,21,13,29,0.01,2,,150
2012-10-30,46,37,28,27,24,19,80,58,37,30.16,30.12,30.06,10,10,7,13,6,,0.00,5,,87
2012-10-31,55,40,26,30,25,14,75,54,35,30.07,30.02,29.96,10,10,6,9,4,,0.00,0,,255